This is the latest recevied weather packets stored in our database for station/object KG0HG. If no packets are shown the sender has not sent any weather packets the latest 10 day(s).
| Time | Temp. | Humidity | Pressure | Rain* | Wind** | Luminosity | Snow |
|---|---|---|---|---|---|---|---|
| 1777957961 | 18.89° C | 59% | 1005.2 hPa | 0 mm | - | 0 W/m² | - |
| 1777957658 | 20.56° C | 51% | 1004.8 hPa | 0 mm | - | 0 W/m² | - |
| 1777957357 | 21.11° C | 50% | 1004.6 hPa | 0 mm | - | 0 W/m² | - |
| 1777957052 | 21.67° C | 49% | 1004.5 hPa | 0 mm | - | 0 W/m² | - |
| 1777956750 | 21.67° C | 52% | 1004.5 hPa | 0 mm | - | 0 W/m² | - |
| 1777956446 | 21.67° C | 56% | 1004.1 hPa | 0 mm | - | 0 W/m² | - |
| 1777956143 | 21.67° C | 58% | 1004 hPa | 0 mm | - | 0 W/m² | - |
| 1777955840 | 21.67° C | 65% | 1004.1 hPa | 0 mm | - | 0 W/m² | - |
| 1777955536 | 21.67° C | 72% | 1004 hPa | 0 mm | - | 0 W/m² | - |
| 1777955232 | 21.67° C | 73% | 1004.1 hPa | 0 mm | - | 0 W/m² | - |
| 1777954930 | 21.67° C | 72% | 1004 hPa | 0 mm | - | 0 W/m² | - |
| 1777954626 | 21.67° C | 71% | 1003.6 hPa | 0 mm | - | 0 W/m² | - |
| 1777954324 | 21.67° C | 71% | 1003.5 hPa | 0 mm | - | 0 W/m² | - |
| 1777954021 | 22.22° C | 71% | 1003.7 hPa | 0 mm | - | 0 W/m² | - |
| 1777953718 | 21.67° C | 71% | 1003.7 hPa | 0 mm | - | 0 W/m² | - |
| 1777953414 | 21.67° C | 71% | 1003.8 hPa | 0 mm | - | 0 W/m² | - |
| 1777953110 | 21.67° C | 71% | 1003.8 hPa | 0 mm | - | 0 W/m² | - |
| 1777952807 | 21.67° C | 71% | 1003.7 hPa | 0 mm | - | 0 W/m² | - |
| 1777952505 | 21.67° C | 72% | 1003.8 hPa | 0 mm | - | 0 W/m² | - |
| 1777952200 | 21.67° C | 71% | 1004 hPa | 0 mm | - | 0 W/m² | - |
| 1777951899 | 21.67° C | 72% | 1003.6 hPa | 0 mm | - | 0 W/m² | - |
| 1777951597 | 21.11° C | 72% | 1003.7 hPa | 0 mm | - | 0 W/m² | - |
| 1777951293 | 21.11° C | 73% | 1003.8 hPa | 0 mm | - | 0 W/m² | - |
| 1777950990 | 21.11° C | 74% | 1003.5 hPa | 0 mm | - | 0 W/m² | - |
| 1777950686 | 21.11° C | 73% | 1003.6 hPa | 0 mm | - | 0 W/m² | - |
* Rain latest hour (hover to see other rain measurements)
** Current wind speed in m/s (hover to see current wind gust speed)